createdAt,value
2018-09-18T00:00:10.079Z,95902.75
2018-09-18T00:02:36.062Z,95907.87
2018-09-18T00:05:02.038Z,95898.77
2018-09-18T00:07:28.056Z,95901.94
2018-09-18T00:09:54.036Z,95899.73
2018-09-18T00:12:20.054Z,95899.36
2018-09-18T00:14:46.029Z,95900.75
2018-09-18T00:17:12.000Z,95900.34
2018-09-18T00:19:37.983Z,95894.16
2018-09-18T00:22:03.952Z,95896.55
2018-09-18T00:24:29.939Z,95894.56
2018-09-18T00:26:55.954Z,95891.75
2018-09-18T00:29:21.925Z,95897.94
2018-09-18T00:31:47.903Z,95891.19
2018-09-18T00:34:13.927Z,95892.35
2018-09-18T00:36:39.912Z,95894.30
2018-09-18T00:39:05.884Z,95894.92
2018-09-18T00:41:31.861Z,95890.16
2018-09-18T00:43:57.842Z,95890.56
2018-09-18T00:46:23.824Z,95894.30
2018-09-18T00:48:49.828Z,95889.54
2018-09-18T00:51:15.811Z,95891.89
2018-09-18T00:53:41.787Z,95883.61
2018-09-18T00:56:07.776Z,95884.17
2018-09-18T00:58:33.764Z,95884.02
2018-09-18T01:00:59.746Z,95881.00
2018-09-18T01:03:25.720Z,95886.13
2018-09-18T01:05:51.703Z,95882.79
2018-09-18T01:08:17.690Z,95881.20
2018-09-18T01:10:43.663Z,95883.55
2018-09-18T01:13:09.643Z,95881.20
2018-09-18T01:15:35.615Z,95883.55
2018-09-18T01:18:01.593Z,95887.70
2018-09-18T01:20:27.581Z,95886.89
2018-09-18T01:22:53.647Z,95892.41
2018-09-18T01:25:19.629Z,95892.41
2018-09-18T01:27:45.606Z,95888.83
2018-09-18T01:30:11.638Z,95893.95
2018-09-18T01:32:37.615Z,95891.19
2018-09-18T01:35:03.600Z,95886.89
2018-09-18T01:37:29.598Z,95892.20
2018-09-18T01:39:55.582Z,95889.44
2018-09-18T01:42:21.558Z,95890.41
2018-09-18T01:44:47.537Z,95891.39
2018-09-18T01:47:13.512Z,95891.79
2018-09-18T01:49:39.522Z,95886.97
2018-09-18T01:52:05.503Z,95885.98
2018-09-18T01:54:31.527Z,95887.38
2018-09-18T01:56:57.503Z,95885.58
2018-09-18T01:59:23.483Z,95888.34
2018-09-18T02:01:49.465Z,95886.97
2018-09-18T02:04:15.433Z,95886.75
2018-09-18T02:06:41.421Z,95887.56
2018-09-18T02:09:07.393Z,95884.39
2018-09-18T02:11:33.379Z,95879.84
2018-09-18T02:13:59.354Z,95884.39
2018-09-18T02:16:25.343Z,95884.55
2018-09-18T02:18:51.316Z,95885.53
2018-09-18T02:21:17.290Z,95884.96
2018-09-18T02:23:43.270Z,95886.53
2018-09-18T02:26:09.289Z,95888.30
2018-09-18T02:28:35.277Z,95888.70
2018-09-18T02:31:01.254Z,95895.61
2018-09-18T02:33:27.241Z,95889.30
2018-09-18T02:35:53.219Z,95885.94
2018-09-18T02:38:19.197Z,95885.53
2018-09-18T02:40:45.178Z,95886.13
2018-09-18T02:43:11.160Z,95883.13
2018-09-18T02:45:37.148Z,95886.70
2018-09-18T02:48:03.141Z,95886.29
2018-09-18T02:50:29.119Z,95888.65
2018-09-18T02:52:55.099Z,95885.10
2018-09-18T02:55:21.074Z,95888.03
2018-09-18T02:57:47.057Z,95888.44
2018-09-18T03:00:13.042Z,95890.22
2018-09-18T03:02:39.022Z,95889.25
2018-09-18T03:05:05.003Z,95892.17
2018-09-18T03:07:30.980Z,95893.95
2018-09-18T03:09:56.952Z,95890.38
2018-09-18T03:12:22.937Z,95890.79
2018-09-18T03:14:48.914Z,95894.36
2018-09-18T03:17:14.899Z,95890.79
2018-09-18T03:19:40.877Z,95888.44
2018-09-18T03:22:06.864Z,95892.17
2018-09-18T03:24:32.845Z,95892.74
2018-09-18T03:26:58.832Z,95892.33
2018-09-18T03:29:24.814Z,95893.55
2018-09-18T03:31:50.792Z,95897.86
2018-09-18T03:34:16.764Z,95903.38
2018-09-18T03:36:42.743Z,95899.65
2018-09-18T03:39:08.732Z,95901.22
2018-09-18T03:41:34.715Z,95898.45
2018-09-18T03:44:00.742Z,95903.58
2018-09-18T03:46:26.751Z,95910.48
2018-09-18T03:48:52.694Z,95910.64
2018-09-18T03:51:18.759Z,95911.62
2018-09-18T03:53:44.752Z,95912.59
2018-09-18T03:56:10.730Z,95916.73
2018-09-18T03:58:36.755Z,95924.05
2018-09-18T04:01:02.741Z,95916.36
2018-09-18T04:03:28.722Z,95919.12
2018-09-18T04:05:54.702Z,95927.41
2018-09-18T04:08:20.673Z,95927.58
2018-09-18T04:10:46.692Z,95927.00
2018-09-18T04:13:12.670Z,95930.17
2018-09-18T04:15:38.644Z,95929.77
2018-09-18T04:18:04.660Z,95928.80
2018-09-18T04:20:30.643Z,95927.47
2018-09-18T04:22:56.701Z,95930.69
2018-09-18T04:25:22.689Z,95934.23
2018-09-18T04:27:48.668Z,95934.08
2018-09-18T04:30:14.650Z,95938.84
2018-09-18T04:32:40.635Z,95942.58
2018-09-18T04:35:06.616Z,95945.53
2018-09-18T04:37:32.618Z,95950.24
2018-09-18T04:39:58.638Z,95956.17
2018-09-18T04:42:24.647Z,95958.18
2018-09-18T04:44:50.584Z,95958.59
2018-09-18T04:47:16.674Z,95964.52
2018-09-18T04:49:42.659Z,95958.02
2018-09-18T04:52:08.636Z,95966.31
2018-09-18T04:54:34.664Z,95964.11
2018-09-18T04:57:00.654Z,95965.91
2018-09-18T04:59:26.653Z,95968.66
2018-09-18T05:01:52.655Z,95970.45
2018-09-18T05:04:18.768Z,95978.74
2018-09-18T05:06:44.849Z,95972.81
2018-09-18T05:09:10.855Z,95980.91
2018-09-18T05:11:36.864Z,95979.15
2018-09-18T05:14:02.858Z,95978.02
2018-09-18T05:16:28.861Z,95975.79
2018-09-18T05:18:54.997Z,95980.02
2018-09-18T05:21:20.981Z,95976.69
2018-09-18T05:23:47.089Z,95975.93
2018-09-18T05:26:13.025Z,95981.86
2018-09-18T05:28:39.053Z,95977.91
2018-09-18T05:31:05.029Z,95980.08
2018-09-18T05:33:31.024Z,95977.66
2018-09-18T05:35:57.004Z,95979.05
2018-09-18T05:38:22.984Z,95981.80
2018-09-18T05:40:48.960Z,95980.99
2018-09-18T05:43:14.979Z,95983.95
2018-09-18T05:45:40.962Z,95986.14
2018-09-18T05:48:06.972Z,95987.52
2018-09-18T05:50:32.952Z,95990.29
2018-09-18T05:52:58.940Z,95992.77
2018-09-18T05:55:24.922Z,95994.34
2018-09-18T05:57:50.914Z,95995.73
2018-09-18T06:00:16.931Z,95993.75
2018-09-18T06:02:42.911Z,95994.91
2018-09-18T06:05:08.923Z,96000.44
2018-09-18T06:07:34.943Z,95998.66
2018-09-18T06:10:00.942Z,96000.25
2018-09-18T06:12:26.976Z,96004.67
2018-09-18T06:14:52.936Z,95998.58
2018-09-18T06:17:18.985Z,95999.01
2018-09-18T06:19:45.000Z,96000.07
2018-09-18T06:22:10.982Z,95994.92
2018-09-18T06:24:36.964Z,96001.26
2018-09-18T06:27:03.052Z,96007.41
2018-09-18T06:29:29.239Z,96007.66
2018-09-18T06:31:55.187Z,96009.66
2018-09-18T06:34:21.219Z,96007.52
2018-09-18T06:36:47.204Z,96009.30
2018-09-18T06:39:13.206Z,96008.52
2018-09-18T06:41:39.200Z,96002.19
2018-09-18T06:44:05.311Z,96000.23
2018-09-18T06:46:31.322Z,96000.55
2018-09-18T06:48:57.299Z,95998.80
2018-09-18T06:51:23.308Z,95997.98
2018-09-18T06:53:49.290Z,95993.59
2018-09-18T06:56:15.334Z,95986.88
2018-09-18T06:58:41.353Z,95992.41
2018-09-18T07:01:07.394Z,95994.14
2018-09-18T07:03:33.382Z,95995.11
2018-09-18T07:05:59.358Z,95997.63
2018-09-18T07:08:25.370Z,95995.05
2018-09-18T07:10:51.368Z,95993.27
2018-09-18T07:13:17.355Z,95988.72
2018-09-18T07:15:43.335Z,95992.51
2018-09-18T07:18:09.352Z,95989.75
2018-09-18T07:20:35.312Z,95989.94
2018-09-18T07:23:01.351Z,95994.23
2018-09-18T07:25:27.379Z,95993.27
2018-09-18T07:27:53.423Z,95992.45
2018-09-18T07:30:19.462Z,95996.19
2018-09-18T07:32:45.449Z,95989.88
2018-09-18T07:35:11.449Z,95989.88
2018-09-18T07:37:37.444Z,95984.08
2018-09-18T07:40:03.433Z,95988.41
2018-09-18T07:42:29.425Z,95988.41
2018-09-18T07:44:55.448Z,95993.89
2018-09-18T07:47:21.401Z,95984.16
2018-09-18T07:49:47.384Z,95986.27
2018-09-18T07:52:13.391Z,95995.38
2018-09-18T07:54:39.359Z,95986.11
2018-09-18T07:57:05.353Z,95981.91
2018-09-18T07:59:31.329Z,95981.91
2018-09-18T08:01:57.309Z,95975.16
2018-09-18T08:04:23.289Z,95971.61
2018-09-18T08:06:49.266Z,95976.73
2018-09-18T08:09:15.247Z,95971.78
2018-09-18T08:11:41.239Z,95966.81
2018-09-18T08:14:07.235Z,95973.32
2018-09-18T08:16:33.228Z,95972.34
2018-09-18T08:19:00.237Z,95967.02
2018-09-18T08:21:26.121Z,95966.41
2018-09-18T08:23:52.101Z,95970.18
2018-09-18T08:26:18.103Z,95966.81
2018-09-18T08:28:44.629Z,95967.42
2018-09-18T08:31:10.574Z,95968.80
2018-09-18T08:33:37.371Z,95964.05
2018-09-18T08:36:03.632Z,95963.65
2018-09-18T08:38:29.606Z,95963.27
2018-09-18T08:40:56.809Z,95951.63
2018-09-18T08:43:22.789Z,95953.20
2018-09-18T08:45:48.791Z,95953.00
2018-09-18T08:48:14.832Z,95952.84
2018-09-18T08:50:40.849Z,95949.52
2018-09-18T08:53:07.670Z,95950.13
2018-09-18T08:55:33.638Z,95952.49
2018-09-18T08:57:59.897Z,95950.30
2018-09-18T09:00:25.894Z,95947.73
2018-09-18T09:02:51.874Z,95940.01
2018-09-18T09:05:17.846Z,95942.36
2018-09-18T09:07:43.906Z,95942.77
2018-09-18T09:10:09.865Z,95941.55
2018-09-18T09:12:35.808Z,95941.91
2018-09-18T09:15:01.824Z,95940.57
2018-09-18T09:17:27.763Z,95936.02
2018-09-18T09:19:53.750Z,95930.13
2018-09-18T09:22:19.795Z,95933.26
2018-09-18T09:24:45.725Z,95930.50
2018-09-18T09:27:11.723Z,95926.95
2018-09-18T09:29:37.746Z,95925.57
2018-09-18T09:32:03.677Z,95918.26
2018-09-18T09:34:29.654Z,95926.55
2018-09-18T09:36:55.722Z,95920.61
2018-09-18T09:39:21.626Z,95920.45
2018-09-18T09:41:47.710Z,95915.09
2018-09-18T09:44:13.693Z,95909.56
2018-09-18T09:46:39.678Z,95904.85
2018-09-18T09:49:05.648Z,95903.06
2018-09-18T09:51:31.643Z,95900.70
2018-09-18T09:53:57.709Z,95902.50
2018-09-18T09:56:23.670Z,95896.97
2018-09-18T09:58:49.669Z,95894.20
2018-09-18T10:01:15.724Z,95889.05
2018-09-18T10:03:41.656Z,95893.61
2018-09-18T10:06:09.284Z,95883.94
2018-09-18T10:08:35.285Z,95883.94
2018-09-18T10:11:01.355Z,95878.41
2018-09-18T10:13:27.266Z,95877.44
2018-09-18T10:15:53.263Z,95880.77
2018-09-18T10:18:19.284Z,95876.87
2018-09-18T10:20:45.386Z,95873.13
2018-09-18T10:23:11.428Z,95880.45
2018-09-18T10:25:37.408Z,95875.30
2018-09-18T10:28:03.404Z,95873.34
2018-09-18T10:30:29.379Z,95870.98
2018-09-18T10:32:55.401Z,95864.66
2018-09-18T10:35:21.392Z,95865.06
2018-09-18T10:37:47.370Z,95858.97
2018-09-18T10:40:13.406Z,95853.84
2018-09-18T10:42:39.434Z,95854.25
2018-09-18T10:45:05.348Z,95844.75
2018-09-18T10:47:31.395Z,95849.30
2018-09-18T10:49:57.338Z,95854.25
2018-09-18T10:52:23.311Z,95843.77
2018-09-18T10:54:49.371Z,95840.44
2018-09-18T10:57:15.354Z,95831.55
2018-09-18T10:59:41.349Z,95834.51
2018-09-18T11:02:07.400Z,95832.52
2018-09-18T11:04:33.335Z,95828.38
2018-09-18T11:06:59.377Z,95826.27
2018-09-18T11:09:25.368Z,95823.67
2018-09-18T11:11:51.325Z,95818.14
2018-09-18T11:14:17.600Z,95811.64
2018-09-18T11:16:43.367Z,95806.12
2018-09-18T11:19:09.269Z,95806.52
2018-09-18T11:21:35.326Z,95806.93
2018-09-18T11:24:01.249Z,95806.52
2018-09-18T11:26:27.288Z,95803.97
2018-09-18T11:28:53.265Z,95800.64
2018-09-18T11:31:19.318Z,95797.47
2018-09-18T11:33:45.224Z,95799.05
2018-09-18T11:36:11.231Z,95790.92
2018-09-18T11:38:37.225Z,95784.99
2018-09-18T11:41:03.223Z,95783.61
2018-09-18T11:43:29.225Z,95779.88
2018-09-18T11:45:55.324Z,95776.70
2018-09-18T11:48:21.242Z,95775.56
2018-09-18T11:50:47.246Z,95773.20
2018-09-18T11:53:13.245Z,95770.09
2018-09-18T11:55:39.242Z,95768.46
2018-09-18T11:58:05.242Z,95768.46
2018-09-18T12:00:31.246Z,95770.45
2018-09-18T12:02:57.280Z,95762.16
2018-09-18T12:05:23.247Z,95759.39
2018-09-18T12:07:49.217Z,95761.75
2018-09-18T12:10:15.214Z,95758.34
2018-09-18T12:12:41.211Z,95754.84
2018-09-18T12:15:07.200Z,95754.65
2018-09-18T12:17:33.179Z,95750.09
2018-09-18T12:19:59.221Z,95743.55
2018-09-18T12:22:25.283Z,95746.96
2018-09-18T12:24:51.308Z,95736.08
2018-09-18T12:27:17.344Z,95744.36
2018-09-18T12:29:43.345Z,95740.58
2018-09-18T12:32:09.347Z,95738.22
2018-09-18T12:34:35.346Z,95740.63
2018-09-18T12:37:01.383Z,95736.84
2018-09-18T12:39:27.387Z,95727.17
2018-09-18T12:41:53.464Z,95731.52
2018-09-18T12:44:19.353Z,95720.47
2018-09-18T12:46:45.331Z,95726.97
2018-09-18T12:49:11.353Z,95732.50
2018-09-18T12:51:37.337Z,95725.79
2018-09-18T12:54:03.336Z,95717.09
2018-09-18T12:56:29.310Z,95716.28
2018-09-18T12:58:55.367Z,95713.56
2018-09-18T13:01:21.292Z,95709.99
2018-09-18T13:03:47.270Z,95711.56
2018-09-18T13:06:13.327Z,95701.49
2018-09-18T13:08:39.275Z,95703.69
2018-09-18T13:11:05.274Z,95701.13
2018-09-18T13:13:31.284Z,95700.56
2018-09-18T13:15:57.253Z,95700.73
2018-09-18T13:18:23.341Z,95702.68
2018-09-18T13:20:49.271Z,95695.40
2018-09-18T13:23:15.282Z,95697.16
2018-09-18T13:25:41.241Z,95687.73
2018-09-18T13:28:07.241Z,95679.61
2018-09-18T13:30:33.342Z,95678.98
2018-09-18T13:32:59.228Z,95675.86
2018-09-18T13:35:25.229Z,95678.47
2018-09-18T13:37:51.211Z,95675.70
2018-09-18T13:40:17.210Z,95674.32
2018-09-18T13:42:43.228Z,95672.37
2018-09-18T13:45:09.215Z,95669.61
2018-09-18T13:47:35.194Z,95671.20
2018-09-18T13:50:01.195Z,95672.22
2018-09-18T13:52:27.196Z,95676.61
2018-09-18T13:54:53.229Z,95671.73
2018-09-18T13:57:19.230Z,95673.56
2018-09-18T13:59:45.242Z,95669.98
2018-09-18T14:02:11.259Z,95676.17
2018-09-18T14:04:37.236Z,95680.77
2018-09-18T14:07:03.209Z,95682.20
2018-09-18T14:09:29.279Z,95676.67
2018-09-18T14:11:55.182Z,95676.95
2018-09-18T14:14:21.230Z,95669.85
2018-09-18T14:16:47.174Z,95673.14
2018-09-18T14:19:13.141Z,95668.83
2018-09-18T14:21:39.141Z,95664.28
2018-09-18T14:24:05.133Z,95665.66
2018-09-18T14:26:31.230Z,95665.70
2018-09-18T14:28:57.132Z,95664.12
2018-09-18T14:31:23.178Z,95669.64
2018-09-18T14:33:49.181Z,95672.41
2018-09-18T14:36:16.030Z,95673.38
2018-09-18T14:38:43.472Z,95677.94
2018-09-18T14:41:09.988Z,95675.73
2018-09-18T14:43:36.540Z,95678.74
2018-09-18T14:46:03.172Z,95674.00
2018-09-18T14:48:29.734Z,95677.41
2018-09-18T14:50:55.695Z,95679.41
2018-09-18T14:53:21.699Z,95675.88
2018-09-18T14:55:47.841Z,95684.16
2018-09-18T14:58:13.842Z,95685.59
2018-09-18T15:00:39.860Z,95689.94
2018-09-18T15:03:05.845Z,95694.08
2018-09-18T15:05:31.829Z,95693.48
2018-09-18T15:07:57.818Z,95692.91
2018-09-18T15:10:23.831Z,95685.59
2018-09-18T15:12:49.841Z,95691.36
2018-09-18T15:15:15.817Z,95693.52
2018-09-18T15:17:41.846Z,95691.57
2018-09-18T15:20:07.800Z,95692.95
2018-09-18T15:22:33.784Z,95697.72
2018-09-18T15:24:59.835Z,95695.36
2018-09-18T15:27:25.857Z,95702.10
2018-09-18T15:29:51.859Z,95701.50
2018-09-18T15:32:18.023Z,95703.13
2018-09-18T15:34:43.863Z,95699.79
2018-09-18T15:37:09.869Z,95704.36
2018-09-18T15:39:35.922Z,95702.19
2018-09-18T15:42:01.865Z,95699.59
2018-09-18T15:44:27.877Z,95704.91
2018-09-18T15:46:54.002Z,95704.46
2018-09-18T15:49:19.983Z,95706.98
2018-09-18T15:51:46.059Z,95705.80
2018-09-18T15:54:12.031Z,95711.89
2018-09-18T15:56:37.995Z,95704.37
2018-09-18T15:59:04.008Z,95707.53
2018-09-18T16:01:33.063Z,95706.32
2018-09-18T16:03:59.241Z,95716.19
2018-09-18T16:06:25.166Z,95714.00
2018-09-18T16:08:51.147Z,95723.09
2018-09-18T16:11:17.125Z,95717.33
2018-09-18T16:13:43.110Z,95719.28
2018-09-18T16:16:09.116Z,95712.98
2018-09-18T16:18:35.087Z,95708.02
2018-09-18T16:21:01.079Z,95716.71
2018-09-18T16:23:27.088Z,95712.33
2018-09-18T16:25:53.074Z,95713.09
2018-09-18T16:28:19.073Z,95718.41
2018-09-18T16:30:45.109Z,95720.24
2018-09-18T16:33:11.058Z,95725.58
2018-09-18T16:35:37.056Z,95724.08
2018-09-18T16:38:03.065Z,95727.81
2018-09-18T16:40:29.386Z,95734.16
2018-09-18T16:42:55.349Z,95733.39
2018-09-18T16:45:21.438Z,95736.77
2018-09-18T16:47:47.398Z,95733.20
2018-09-18T16:50:13.420Z,95741.48
2018-09-18T16:52:39.484Z,95739.32
2018-09-18T16:55:08.941Z,95743.06
2018-09-18T16:57:37.650Z,95742.66
2018-09-18T17:00:03.660Z,95744.61
2018-09-18T17:02:29.820Z,95748.59
2018-09-18T17:04:55.647Z,95749.61
2018-09-18T17:07:21.741Z,95750.42
2018-09-18T17:09:47.868Z,95747.83
2018-09-18T17:12:13.948Z,95746.23
2018-09-18T17:14:39.943Z,95752.73
2018-09-18T17:17:05.928Z,95749.97
2018-09-18T17:19:31.961Z,95755.09
2018-09-18T17:21:57.896Z,95752.89
2018-09-18T17:24:23.926Z,95761.43
2018-09-18T17:26:49.862Z,95760.63
2018-09-18T17:29:15.912Z,95761.64
2018-09-18T17:31:41.910Z,95766.59
2018-09-18T17:34:07.866Z,95763.02
2018-09-18T17:36:33.873Z,95772.30
2018-09-18T17:38:59.862Z,95774.94
2018-09-18T17:41:25.876Z,95772.74
2018-09-18T17:43:51.889Z,95781.66
2018-09-18T17:46:17.898Z,95778.32
2018-09-18T17:48:43.907Z,95779.53
2018-09-18T17:51:09.971Z,95790.00
2018-09-18T17:53:36.004Z,95788.23
2018-09-18T17:56:02.033Z,95792.38
2018-09-18T17:58:28.009Z,95795.72
2018-09-18T18:00:54.003Z,95799.45
2018-09-18T18:03:20.086Z,95793.93
2018-09-18T18:05:46.120Z,95794.91
2018-09-18T18:08:12.150Z,95795.47
2018-09-18T18:10:38.192Z,95795.47
2018-09-18T18:13:04.154Z,95803.39
2018-09-18T18:15:30.153Z,95808.11
2018-09-18T18:17:56.141Z,95808.27
2018-09-18T18:20:22.211Z,95814.20
2018-09-18T18:22:48.120Z,95804.94
2018-09-18T18:25:14.149Z,95810.05
2018-09-18T18:27:40.157Z,95812.25
2018-09-18T18:30:06.141Z,95806.53
2018-09-18T18:32:32.138Z,95811.48
2018-09-18T18:34:58.117Z,95811.13
2018-09-18T18:37:24.091Z,95815.33
2018-09-18T18:39:50.081Z,95816.30
2018-09-18T18:42:16.066Z,95815.52
2018-09-18T18:44:42.068Z,95814.70
2018-09-18T18:47:08.051Z,95810.73
2018-09-18T18:49:34.044Z,95813.48
2018-09-18T18:52:00.080Z,95812.52
2018-09-18T18:54:26.115Z,95816.50
2018-09-18T18:56:52.195Z,95818.91
2018-09-18T18:59:18.115Z,95822.28
2018-09-18T19:01:44.102Z,95825.05
2018-09-18T19:04:10.085Z,95827.55
2018-09-18T19:06:36.113Z,95829.70
2018-09-18T19:09:02.117Z,95826.28
2018-09-18T19:11:28.101Z,95828.43
2018-09-18T19:13:54.098Z,95824.07
2018-09-18T19:16:20.233Z,95826.59
2018-09-18T19:18:47.374Z,95826.19
2018-09-18T19:21:13.278Z,95825.56
2018-09-18T19:23:39.347Z,95830.69
2018-09-18T19:26:06.786Z,95826.90
2018-09-18T19:28:32.780Z,95825.52
2018-09-18T19:30:58.848Z,95830.84
2018-09-18T19:33:25.025Z,95827.26
2018-09-18T19:35:50.832Z,95826.45
2018-09-18T19:38:16.836Z,95828.02
2018-09-18T19:40:42.822Z,95826.64
2018-09-18T19:43:09.008Z,95835.09
2018-09-18T19:45:34.942Z,95830.54
2018-09-18T19:48:00.962Z,95832.33
2018-09-18T19:50:26.976Z,95834.47
2018-09-18T19:52:52.984Z,95830.73
2018-09-18T19:55:19.013Z,95829.11
2018-09-18T19:57:45.005Z,95836.59
2018-09-18T20:00:10.973Z,95834.64
2018-09-18T20:02:36.960Z,95833.04
2018-09-18T20:05:02.951Z,95831.83
2018-09-18T20:07:28.940Z,95835.16
2018-09-18T20:09:54.926Z,95844.42
2018-09-18T20:12:20.944Z,95848.00
2018-09-18T20:14:46.983Z,95845.80
2018-09-18T20:17:12.936Z,95849.33
2018-09-18T20:19:38.980Z,95850.71
2018-09-18T20:22:05.099Z,95848.92
2018-09-18T20:24:31.090Z,95854.05
2018-09-18T20:26:57.083Z,95862.17
2018-09-18T20:29:23.072Z,95860.73
2018-09-18T20:31:49.065Z,95861.95
2018-09-18T20:34:15.038Z,95858.78
2018-09-18T20:36:41.031Z,95858.55
2018-09-18T20:39:07.009Z,95860.52
2018-09-18T20:41:33.061Z,95867.44
2018-09-18T20:43:59.500Z,95862.06
2018-09-18T20:46:25.467Z,95856.95
2018-09-18T20:48:51.449Z,95859.71
2018-09-18T20:51:17.432Z,95862.64
2018-09-18T20:53:43.420Z,95860.69
2018-09-18T20:56:09.404Z,95867.59
2018-09-18T20:58:35.399Z,95875.07
2018-09-18T21:01:01.583Z,95876.64
2018-09-18T21:03:27.659Z,95878.23
2018-09-18T21:05:53.639Z,95878.44
2018-09-18T21:08:19.645Z,95876.05
2018-09-18T21:10:45.667Z,95877.43
2018-09-18T21:13:11.667Z,95871.53
2018-09-18T21:15:37.636Z,95876.64
2018-09-18T21:18:03.621Z,95883.55
2018-09-18T21:20:29.732Z,95879.41
2018-09-18T21:22:55.744Z,95880.38
2018-09-18T21:25:21.719Z,95880.38
2018-09-18T21:27:47.704Z,95880.38
2018-09-18T21:30:13.723Z,95878.76
2018-09-18T21:32:39.872Z,95873.07
2018-09-18T21:35:05.826Z,95869.90
2018-09-18T21:37:31.807Z,95870.30
2018-09-18T21:39:57.783Z,95873.64
2018-09-18T21:42:23.779Z,95876.40
2018-09-18T21:44:49.760Z,95867.33
2018-09-18T21:47:15.736Z,95875.99
2018-09-18T21:49:41.850Z,95875.21
2018-09-18T21:52:07.917Z,95868.30
2018-09-18T21:54:33.933Z,95870.66
2018-09-18T21:56:59.970Z,95877.57
2018-09-18T21:59:25.963Z,95874.80
2018-09-18T22:01:51.944Z,95873.96
2018-09-18T22:04:17.927Z,95879.36
2018-09-18T22:06:43.922Z,95876.72
2018-09-18T22:09:09.935Z,95878.11
2018-09-18T22:11:35.930Z,95876.72
2018-09-18T22:14:01.913Z,95873.15
2018-09-18T22:16:27.901Z,95871.20
2018-09-18T22:18:53.869Z,95874.53
2018-09-18T22:21:19.852Z,95872.77
2018-09-18T22:23:45.834Z,95873.55
2018-09-18T22:26:11.815Z,95871.77
2018-09-18T22:28:37.808Z,95874.72
2018-09-18T22:31:03.783Z,95881.84
2018-09-18T22:33:29.769Z,95869.60
2018-09-18T22:35:55.750Z,95875.54
2018-09-18T22:38:21.764Z,95876.51
2018-09-18T22:40:47.747Z,95869.60
2018-09-18T22:43:13.820Z,95876.11
2018-09-18T22:45:39.749Z,95872.53
2018-09-18T22:48:05.695Z,95872.94
2018-09-18T22:50:31.675Z,95873.50
2018-09-18T22:52:57.663Z,95877.08
2018-09-18T22:55:23.639Z,95878.05
2018-09-18T22:57:49.633Z,95881.79
2018-09-18T23:00:15.639Z,95888.13
2018-09-18T23:02:41.621Z,95886.34
2018-09-18T23:05:07.610Z,95886.91
2018-09-18T23:07:33.581Z,95884.55
2018-09-18T23:09:59.600Z,95888.30
2018-09-18T23:12:25.558Z,95883.77
2018-09-18T23:14:51.531Z,95887.73
2018-09-18T23:17:17.523Z,95886.53
2018-09-18T23:19:43.496Z,95886.91
2018-09-18T23:22:09.474Z,95886.34
2018-09-18T23:24:35.499Z,95891.05
2018-09-18T23:27:01.483Z,95891.05
2018-09-18T23:29:27.468Z,95895.80
2018-09-18T23:31:53.447Z,95894.42
2018-09-18T23:34:19.433Z,95898.97
2018-09-18T23:36:45.423Z,95893.03
2018-09-18T23:39:11.414Z,95897.18
2018-09-18T23:41:37.393Z,95895.39
2018-09-18T23:44:03.455Z,95901.33
2018-09-18T23:46:29.469Z,95906.25
2018-09-18T23:48:55.410Z,95906.45
2018-09-18T23:51:21.397Z,95905.47
2018-09-18T23:53:47.370Z,95904.66
2018-09-18T23:56:13.361Z,95905.22
2018-09-18T23:58:39.334Z,95907.42
